ヨハネスブルグ の空港の天気 - METARとTAF

ヨハネスブルグ/O.R.タンボ国際空港 ( FAOR / JNB ) - 南アフリカ ヨハネスブルグ
飛行場実況気象(Metar)
観測時間02/17 16:00 SAST (02/17 14:00 UTC)
風向・風速南南東 6m/s
視程10km以上
天気現象
少しの雲 雲底高度 1460m
気温24℃
湿度41%
気圧1021hPa
METARFAOR 171400Z 15011KT 9999 FEW048 24/10 Q1021 NOSIG
過去の天気等 Google飛行場航空写真 Wunderground天気予報

過去48時間のMETAR

飛行場予報(TAF)
発表時間: 2/17 12:00 SAST (2/17 10:00 UTC)
予報対象時間: 17日14時 SAST ~ 18日20時 SAST
風向・風速東南東 6m/s
視程10km以上
なし
18日2時 SAST ~ 18日8時 SAST に 確率 30% で一時的に
視程5000m
天気現象もや
全天の8割程度の雲 雲底高度 150m
18日16時 SAST ~ 18日18時 SAST に徐々に
風向・風速南 3m/s
TAF FAOR 171000Z 1712/1818 12012KT CAVOK TX25/1713Z TN14/1803Z
PROB30 TEMPO 1800/1806 5000 BR BKN005
BECMG 1814/1816 18005KT